Aviation Digital Data Service (ADDS)

Output produced by METARs form (1729 UTC 02 September 2014)
found at http://www.aviationweather.gov/adds/metars/
 
KGED 021654Z AUTO 20010KT 10SM FEW090 34/21 A2996 RMK AO2 SLP143 T03440211